Time;durP1;ratioP1;P1;durP2;ratioP2;P2;SDS_P1;SDS_P2;PMS_P1;PMS_P2;Temp;Humidity;BMP_temperature;BMP_pressure;BME280_temperature;BME280_humidity;BME280_pressure;Samples;Min_cycle;Max_cycle;Signal;HPM_P1;HPM_P2
2021/12/08 00:02:09;;;;;;;;;;;;;;;;;;4950943;28;20459;-66
2021/12/08 00:04:34;;;;;;;62.17;19.55;;;;;;;;;;4950162;28;20313;-64
2021/12/08 00:06:59;;;;;;;58.42;19.55;;;;;;;;;;4950414;28;20367;-65
2021/12/08 00:09:35;;;;;;;63.22;19.75;;;;;;;;;;4950778;28;20425;-66
2021/12/08 00:14:44;;;;;;;61.38;18.25;;;;;;;;;;4951674;28;20097;-65
2021/12/08 00:17:09;;;;;;;58.22;19.27;;;;;;;;;;4950160;28;20034;-65
2021/12/08 00:19:35;;;;;;;49.17;17.40;;;;;;;;;;4950238;28;20310;-65
2021/12/08 00:22:00;;;;;;;51.05;16.25;;;;;;;;;;4932320;28;20392;-65
2021/12/08 00:24:26;;;;;;;46.53;16.50;;;;;;;;;;4950269;28;20425;-67
2021/12/08 00:26:52;;;;;;;54.80;17.80;;;;;;;;;;4950191;28;20330;-65
2021/12/08 00:29:18;;;;;;;43.65;14.63;;;;;;;;;;4950680;28;20415;-65
2021/12/08 00:31:46;;;;;;;52.00;18.38;;;;;;;;;;4950134;28;20314;-65
2021/12/08 00:34:12;;;;;;;53.53;17.38;;;;;;;;;;4932116;28;20552;-65
2021/12/08 00:36:47;;;;;;;43.08;16.98;;;;;;;;;;4949807;28;20445;-66
2021/12/08 00:39:12;;;;;;;56.08;16.48;;;;;;;;;;4951104;28;20416;-65
2021/12/08 00:41:39;;;;;;;55.75;18.80;;;;;;;;;;4949585;28;20360;-65
2021/12/08 00:44:05;;;;;;;46.88;15.70;;;;;;;;;;4950192;28;20025;-65
2021/12/08 00:46:30;;;;;;;52.08;16.70;;;;;;;;;;4951200;28;20460;-65
2021/12/08 00:48:56;;;;;;;51.30;17.90;;;;;;;;;;4950242;28;20394;-65
2021/12/08 00:51:21;;;;;;;52.28;16.02;;;;;;;;;;4948774;28;20369;-66
2021/12/08 00:53:47;;;;;;;50.90;16.35;;;;;;;;;;4951157;28;20022;-65
2021/12/08 00:56:13;;;;;;;51.97;16.92;;;;;;;;;;4932299;28;20037;-65
2021/12/08 00:58:40;;;;;;;53.42;17.77;;;;;;;;;;4949007;28;20061;-65
2021/12/08 01:01:07;;;;;;;55.55;17.73;;;;;;;;;;4954505;28;20391;-64
2021/12/08 01:03:34;;;;;;;55.08;16.60;;;;;;;;;;4960552;28;20341;-65
2021/12/08 01:05:59;;;;;;;52.67;18.08;;;;;;;;;;4968669;28;20048;-65
2021/12/08 01:08:28;;;;;;;52.00;17.42;;;;;;;;;;4968977;28;20429;-65
2021/12/08 01:10:55;;;;;;;46.83;15.77;;;;;;;;;;4970802;28;20417;-65
2021/12/08 01:13:22;;;;;;;49.10;16.00;;;;;;;;;;4969655;28;20115;-66
2021/12/08 01:15:52;;;;;;;45.45;17.02;;;;;;;;;;4972421;28;20429;-65
2021/12/08 01:18:18;;;;;;;45.95;16.40;;;;;;;;;;4973224;28;20408;-65
2021/12/08 01:20:44;;;;;;;48.95;15.40;;;;;;;;;;4973042;28;20037;-65
2021/12/08 01:23:10;;;;;;;41.15;15.10;;;;;;;;;;4973031;28;20456;-65
2021/12/08 01:25:36;;;;;;;49.88;15.38;;;;;;;;;;4972950;28;20529;-65
2021/12/08 01:28:02;;;;;;;45.05;15.73;;;;;;;;;;4972891;28;20518;-65
2021/12/08 01:30:27;;;;;;;44.35;15.35;;;;;;;;;;4972517;28;20052;-65
2021/12/08 01:32:53;;;;;;;37.55;14.57;;;;;;;;;;4974496;28;20495;-65
2021/12/08 01:35:19;;;;;;;39.33;15.48;;;;;;;;;;4972963;28;20510;-65
2021/12/08 01:37:45;;;;;;;53.00;15.93;;;;;;;;;;4972890;28;20048;-64
2021/12/08 01:40:12;;;;;;;43.08;14.35;;;;;;;;;;4955235;28;20472;-65
2021/12/08 01:42:44;;;;;;;43.33;15.75;;;;;;;;;;4972655;28;20424;-65
2021/12/08 01:48:10;;;;;;;43.78;15.35;;;;;;;;;;4972550;28;20458;-65
2021/12/08 01:50:36;;;;;;;35.08;14.85;;;;;;;;;;4955220;28;20368;-65
2021/12/08 01:53:04;;;;;;;42.13;15.88;;;;;;;;;;4971131;28;20136;-65
2021/12/08 01:55:30;;;;;;;41.83;15.40;;;;;;;;;;4972389;28;20353;-66
2021/12/08 01:57:55;;;;;;;44.35;15.52;;;;;;;;;;4971868;28;20085;-65
2021/12/08 02:00:28;;;;;;;42.55;14.82;;;;;;;;;;4971823;28;20457;-65
2021/12/08 02:02:54;;;;;;;46.15;15.10;;;;;;;;;;4972154;28;20424;-65
2021/12/08 02:05:20;;;;;;;43.78;14.07;;;;;;;;;;4972676;28;20017;-65
2021/12/08 02:07:46;;;;;;;30.83;12.43;;;;;;;;;;4971527;28;20052;-65
2021/12/08 02:10:12;;;;;;;38.33;14.52;;;;;;;;;;4971957;28;20473;-65
2021/12/08 02:12:40;;;;;;;42.60;15.32;;;;;;;;;;4972207;28;20088;-65
2021/12/08 02:15:10;;;;;;;37.97;14.23;;;;;;;;;;4972130;28;20407;-65
2021/12/08 02:17:36;;;;;;;44.60;16.58;;;;;;;;;;4971869;28;20025;-65
2021/12/08 02:20:06;;;;;;;36.75;13.02;;;;;;;;;;4972700;28;20099;-65
2021/12/08 02:22:32;;;;;;;45.97;15.55;;;;;;;;;;4971576;28;20431;-65
2021/12/08 02:24:57;;;;;;;43.80;15.38;;;;;;;;;;4970104;28;20116;-65
2021/12/08 02:27:23;;;;;;;38.03;14.15;;;;;;;;;;4970761;28;20065;-65
2021/12/08 02:29:56;;;;;;;43.90;13.95;;;;;;;;;;4971820;28;20483;-65
2021/12/08 02:48:29;;;;;;;39.00;13.02;;;;;;;;;;4972571;28;20437;-65
2021/12/08 02:50:55;;;;;;;32.00;12.88;;;;;;;;;;4973679;28;20335;-66
2021/12/08 02:53:21;;;;;;;37.90;13.35;;;;;;;;;;4971542;28;20432;-66
2021/12/08 02:55:47;;;;;;;36.45;13.23;;;;;;;;;;4971141;28;20452;-65
2021/12/08 02:58:12;;;;;;;32.97;12.73;;;;;;;;;;4972700;28;20046;-65
2021/12/08 03:00:57;;;;;;;30.50;12.57;;;;;;;;;;4971838;28;20487;-67
2021/12/08 03:03:23;;;;;;;34.58;12.45;;;;;;;;;;4971339;28;20377;-65
2021/12/08 03:05:49;;;;;;;30.75;12.40;;;;;;;;;;4969689;28;20025;-65
2021/12/08 03:08:14;;;;;;;28.35;12.35;;;;;;;;;;4971865;28;20322;-65
2021/12/08 03:10:43;;;;;;;32.90;13.27;;;;;;;;;;4971026;28;20029;-65
2021/12/08 03:13:08;;;;;;;32.92;12.70;;;;;;;;;;4953156;28;20091;-65
2021/12/08 03:15:34;;;;;;;32.38;12.38;;;;;;;;;;4952854;28;20490;-65
2021/12/08 03:18:00;;;;;;;28.05;10.65;;;;;;;;;;4969796;28;20061;-65
2021/12/08 03:20:38;;;;;;;34.60;11.65;;;;;;;;;;4971799;28;20511;-65
2021/12/08 03:23:04;;;;;;;33.92;12.65;;;;;;;;;;4971213;28;20341;-65
2021/12/08 03:25:35;;;;;;;29.73;12.55;;;;;;;;;;4970874;28;20424;-65
2021/12/08 03:28:09;;;;;;;33.55;12.43;;;;;;;;;;4971335;28;20448;-65
2021/12/08 03:30:41;;;;;;;26.30;10.30;;;;;;;;;;4970762;28;20502;-65
2021/12/08 03:33:08;;;;;;;28.35;10.82;;;;;;;;;;4970290;28;20060;-65
2021/12/08 03:35:34;;;;;;;31.65;10.82;;;;;;;;;;4970730;28;20018;-65
2021/12/08 03:37:59;;;;;;;25.63;10.25;;;;;;;;;;4970665;28;20065;-65
2021/12/08 03:40:26;;;;;;;29.35;10.75;;;;;;;;;;4970968;28;20343;-65
2021/12/08 03:42:54;;;;;;;28.13;10.55;;;;;;;;;;4970284;28;20033;-65
2021/12/08 03:45:25;;;;;;;28.33;10.88;;;;;;;;;;4970505;28;20372;-65
2021/12/08 03:48:00;;;;;;;29.88;10.25;;;;;;;;;;4970446;28;20453;-65
2021/12/08 03:50:25;;;;;;;30.77;11.02;;;;;;;;;;4970481;28;20090;-65
2021/12/08 03:52:51;;;;;;;26.80;10.95;;;;;;;;;;4970713;28;20421;-65
2021/12/08 03:55:17;;;;;;;25.83;10.52;;;;;;;;;;4971165;28;20536;-65
2021/12/08 03:57:43;;;;;;;27.60;10.73;;;;;;;;;;4969725;28;20456;-65
2021/12/08 04:00:20;;;;;;;32.05;11.32;;;;;;;;;;4969976;28;20400;-65
2021/12/08 04:02:46;;;;;;;28.98;10.80;;;;;;;;;;4970258;28;20099;-65
2021/12/08 04:05:19;;;;;;;27.55;11.05;;;;;;;;;;4969705;28;20033;-66
2021/12/08 04:07:45;;;;;;;24.00;8.98;;;;;;;;;;4969988;28;20339;-65
2021/12/08 04:10:17;;;;;;;27.23;10.73;;;;;;;;;;4969979;28;20056;-65
2021/12/08 04:12:49;;;;;;;25.27;9.40;;;;;;;;;;4969385;28;20187;-65
2021/12/08 04:15:16;;;;;;;31.33;11.52;;;;;;;;;;4970307;28;20094;-65
2021/12/08 04:17:44;;;;;;;26.23;10.23;;;;;;;;;;4970025;28;20447;-65
2021/12/08 04:20:18;;;;;;;27.23;10.30;;;;;;;;;;4952095;28;20049;-65
2021/12/08 04:22:47;;;;;;;23.20;10.52;;;;;;;;;;4952924;28;20372;-65
2021/12/08 04:25:17;;;;;;;26.95;10.27;;;;;;;;;;4969780;28;20487;-65
2021/12/08 04:27:44;;;;;;;23.23;10.27;;;;;;;;;;4969966;28;20355;-66
2021/12/08 04:30:20;;;;;;;23.63;9.45;;;;;;;;;;4969472;28;20567;-66
2021/12/08 04:32:46;;;;;;;22.52;8.20;;;;;;;;;;4951787;28;20310;-65
2021/12/08 04:35:15;;;;;;;22.23;10.27;;;;;;;;;;4970785;28;20396;-66
2021/12/08 04:37:45;;;;;;;22.70;9.10;;;;;;;;;;4969289;28;20075;-68
2021/12/08 04:45:19;;;;;;;19.00;8.85;;;;;;;;;;4969569;28;20447;-66
2021/12/08 04:48:15;;;;;;;21.67;7.30;;;;;;;;;;4969619;28;20310;-67
2021/12/08 04:50:49;;;;;;;22.42;8.88;;;;;;;;;;4953845;28;20080;-65
2021/12/08 04:54:04;;;;;;;21.05;8.68;;;;;;;;;;4969763;28;20441;-65
2021/12/08 05:06:49;;;;;;;21.00;8.90;;;;;;;;;;4969309;28;20411;-65
2021/12/08 05:09:18;;;;;;;26.85;8.93;;;;;;;;;;4968825;28;20411;-64
2021/12/08 05:11:51;;;;;;;20.63;8.60;;;;;;;;;;4970165;28;20352;-65
2021/12/08 05:14:21;;;;;;;23.48;9.30;;;;;;;;;;4969069;28;20449;-65
2021/12/08 05:16:50;;;;;;;18.02;8.38;;;;;;;;;;4968983;28;20424;-65
2021/12/08 05:19:19;;;;;;;17.38;8.77;;;;;;;;;;4969218;28;20179;-65
2021/12/08 05:21:53;;;;;;;23.75;8.77;;;;;;;;;;4969320;28;20440;-65
2021/12/08 05:24:32;;;;;;;22.30;8.38;;;;;;;;;;4968889;28;20403;-65
2021/12/08 05:27:10;;;;;;;20.17;8.35;;;;;;;;;;4969221;28;20092;-65
2021/12/08 05:29:48;;;;;;;20.95;9.75;;;;;;;;;;4968922;28;20417;-65
2021/12/08 05:32:14;;;;;;;17.80;8.73;;;;;;;;;;4969309;28;20373;-66
2021/12/08 05:34:40;;;;;;;16.48;7.05;;;;;;;;;;4969521;28;20417;-67
2021/12/08 05:37:07;;;;;;;19.10;7.68;;;;;;;;;;4969087;28;20383;-65
2021/12/08 05:39:33;;;;;;;18.85;8.15;;;;;;;;;;4950993;28;20463;-65
2021/12/08 05:42:06;;;;;;;19.58;7.65;;;;;;;;;;4968563;28;20336;-64
2021/12/08 05:44:32;;;;;;;14.70;7.05;;;;;;;;;;4969991;28;20372;-64
2021/12/08 05:46:59;;;;;;;23.15;8.30;;;;;;;;;;4968772;28;20376;-65
2021/12/08 05:49:25;;;;;;;16.90;7.90;;;;;;;;;;4968480;28;20388;-65
2021/12/08 05:51:53;;;;;;;17.63;7.88;;;;;;;;;;4968653;28;20073;-65
2021/12/08 05:54:26;;;;;;;19.60;7.90;;;;;;;;;;4906996;28;20364;-64
2021/12/08 05:56:54;;;;;;;18.08;7.55;;;;;;;;;;4968277;28;20495;-65
2021/12/08 05:59:21;;;;;;;16.05;7.25;;;;;;;;;;4967273;28;20029;-65
2021/12/08 06:01:57;;;;;;;19.58;8.27;;;;;;;;;;4970491;28;20025;-65
2021/12/08 06:04:25;;;;;;;17.98;8.13;;;;;;;;;;4973643;28;20352;-64
2021/12/08 06:06:51;;;;;;;20.00;7.75;;;;;;;;;;4972293;28;20025;-64
2021/12/08 06:09:18;;;;;;;18.38;8.52;;;;;;;;;;4972230;28;20428;-65
2021/12/08 06:11:45;;;;;;;23.58;9.35;;;;;;;;;;4972018;28;20425;-65
2021/12/08 06:14:12;;;;;;;19.15;6.75;;;;;;;;;;4972744;28;20294;-64
2021/12/08 06:16:39;;;;;;;15.98;7.10;;;;;;;;;;4971916;28;20509;-65
2021/12/08 06:19:08;;;;;;;16.80;6.88;;;;;;;;;;4954649;28;20545;-64
2021/12/08 06:21:34;;;;;;;;;;;;;;;;;;4971900;28;20534;-65
2021/12/08 06:24:00;;;;;;;17.02;7.28;;;;;;;;;;4972089;28;20236;-65
2021/12/08 06:26:27;;;;;;;16.50;7.00;;;;;;;;;;4970451;28;20386;-64
2021/12/08 06:28:54;;;;;;;19.00;6.80;;;;;;;;;;4972220;28;20326;-65
2021/12/08 06:31:23;;;;;;;18.08;7.65;;;;;;;;;;4973253;28;20356;-65
2021/12/08 06:33:50;;;;;;;15.88;8.10;;;;;;;;;;4953889;28;20467;-65
2021/12/08 06:36:21;;;;;;;16.80;7.45;;;;;;;;;;4971870;28;20437;-65
2021/12/08 06:38:46;;;;;;;19.75;7.25;;;;;;;;;;4971537;28;20465;-65
2021/12/08 06:41:19;;;;;;;16.02;7.07;;;;;;;;;;4953952;28;20421;-65
2021/12/08 06:43:50;;;;;;;22.02;7.43;;;;;;;;;;4971553;28;20404;-65
2021/12/08 06:46:15;;;;;;;14.35;7.22;;;;;;;;;;4953736;28;20496;-65
2021/12/08 06:48:47;;;;;;;15.68;6.90;;;;;;;;;;4972649;28;20328;-64
2021/12/08 06:51:18;;;;;;;14.45;7.13;;;;;;;;;;4971538;28;20099;-64
2021/12/08 06:53:46;;;;;;;20.08;7.97;;;;;;;;;;4953714;28;20343;-64
2021/12/08 06:56:23;;;;;;;14.80;6.78;;;;;;;;;;4971093;28;20467;-64
2021/12/08 06:58:55;;;;;;;15.23;6.85;;;;;;;;;;4972359;28;20049;-65
2021/12/08 07:01:56;;;;;;;13.13;6.28;;;;;;;;;;4971037;28;20468;-65
2021/12/08 07:04:31;;;;;;;14.27;6.32;;;;;;;;;;4971166;28;20421;-64
2021/12/08 07:07:03;;;;;;;15.88;6.53;;;;;;;;;;4971726;28;20436;-65
2021/12/08 07:09:37;;;;;;;17.67;7.15;;;;;;;;;;4971260;28;20363;-64
2021/12/08 07:12:09;;;;;;;15.30;7.65;;;;;;;;;;4970360;28;20037;-65
2021/12/08 07:14:35;;;;;;;13.75;6.43;;;;;;;;;;4971333;28;20471;-65
2021/12/08 07:17:03;;;;;;;15.18;7.50;;;;;;;;;;4952966;28;20437;-65
2021/12/08 07:19:41;;;;;;;15.40;6.43;;;;;;;;;;4971283;28;20516;-65
2021/12/08 07:22:11;;;;;;;12.45;6.15;;;;;;;;;;4970528;28;20383;-65
2021/12/08 07:24:40;;;;;;;15.77;7.05;;;;;;;;;;4970965;28;20333;-64
2021/12/08 07:27:12;;;;;;;14.27;7.60;;;;;;;;;;4972371;28;20441;-65
2021/12/08 07:29:39;;;;;;;16.40;7.60;;;;;;;;;;4970752;28;20425;-65
2021/12/08 07:32:12;;;;;;;14.95;6.45;;;;;;;;;;4971664;28;20132;-65
2021/12/08 07:34:37;;;;;;;13.85;7.18;;;;;;;;;;4969106;28;20515;-64
2021/12/08 07:37:14;;;;;;;13.57;6.32;;;;;;;;;;4970473;28;20324;-67
2021/12/08 07:39:44;;;;;;;15.38;6.22;;;;;;;;;;4970358;28;20344;-67
2021/12/08 07:42:19;;;;;;;14.30;6.03;;;;;;;;;;4970293;28;20425;-65
2021/12/08 07:44:49;;;;;;;13.90;6.22;;;;;;;;;;4971875;28;20440;-65
2021/12/08 07:47:19;;;;;;;14.70;5.70;;;;;;;;;;4970509;28;20421;-65
2021/12/08 07:49:48;;;;;;;16.77;6.78;;;;;;;;;;4971858;28;20399;-65
2021/12/08 07:52:33;;;;;;;14.18;5.40;;;;;;;;;;4971212;28;20353;-66
2021/12/08 07:55:00;;;;;;;13.15;6.47;;;;;;;;;;4970019;28;20029;-65
2021/12/08 07:57:29;;;;;;;14.30;5.88;;;;;;;;;;4970294;28;20387;-64
2021/12/08 07:59:59;;;;;;;16.17;7.45;;;;;;;;;;4969875;28;20499;-64
2021/12/08 08:02:26;;;;;;;12.45;5.63;;;;;;;;;;4970664;28;20053;-67
2021/12/08 08:04:54;;;;;;;14.95;6.10;;;;;;;;;;4970101;28;20044;-65
2021/12/08 08:07:21;;;;;;;16.92;6.07;;;;;;;;;;4969960;28;20517;-64
2021/12/08 08:09:48;;;;;;;11.40;5.35;;;;;;;;;;4968911;28;20340;-64
2021/12/08 08:12:18;;;;;;;11.57;6.10;;;;;;;;;;4969778;28;20439;-65
2021/12/08 08:14:51;;;;;;;13.02;6.65;;;;;;;;;;4970046;28;20033;-65
2021/12/08 08:17:24;;;;;;;12.15;5.45;;;;;;;;;;4969872;28;20429;-65
2021/12/08 08:19:50;;;;;;;15.55;6.07;;;;;;;;;;4969994;28;20091;-64
2021/12/08 08:22:20;;;;;;;16.40;6.20;;;;;;;;;;4970197;28;20439;-65
2021/12/08 08:24:46;;;;;;;12.48;5.75;;;;;;;;;;4970620;28;20443;-65
2021/12/08 08:27:13;;;;;;;14.00;6.13;;;;;;;;;;4969636;28;20468;-64
2021/12/08 08:29:39;;;;;;;15.20;6.70;;;;;;;;;;4951627;28;20344;-65
2021/12/08 08:32:20;;;;;;;17.10;6.57;;;;;;;;;;4968323;28;20341;-65
2021/12/08 08:34:47;;;;;;;12.82;6.22;;;;;;;;;;4969474;28;20417;-65
2021/12/08 08:37:14;;;;;;;17.70;7.70;;;;;;;;;;4970233;28;20052;-64
2021/12/08 08:39:45;;;;;;;11.15;5.55;;;;;;;;;;4969557;28;20030;-64
2021/12/08 08:42:26;;;;;;;16.73;6.38;;;;;;;;;;4970311;28;20348;-65
2021/12/08 08:45:01;;;;;;;16.77;7.25;;;;;;;;;;4969629;28;20100;-65
2021/12/08 08:47:39;;;;;;;14.73;6.53;;;;;;;;;;4970771;28;20368;-65
2021/12/08 08:50:08;;;;;;;11.25;6.05;;;;;;;;;;4969492;28;20499;-64
2021/12/08 08:52:37;;;;;;;14.30;6.50;;;;;;;;;;4969340;28;20341;-64
2021/12/08 08:55:17;;;;;;;20.02;6.50;;;;;;;;;;4971043;28;20051;-65
2021/12/08 08:57:43;;;;;;;13.40;5.43;;;;;;;;;;4968638;28;20049;-65
2021/12/08 09:00:31;;;;;;;18.27;7.15;;;;;;;;;;4969803;28;20520;-65
2021/12/08 09:03:00;;;;;;;35.70;11.07;;;;;;;;;;4969725;28;20341;-64
2021/12/08 09:05:33;;;;;;;32.38;11.30;;;;;;;;;;4951819;28;20333;-65
2021/12/08 09:07:59;;;;;;;29.42;11.43;;;;;;;;;;4969543;28;20368;-65
2021/12/08 09:10:39;;;;;;;32.28;11.75;;;;;;;;;;4969687;28;20037;-64
2021/12/08 09:13:35;;;;;;;31.95;12.20;;;;;;;;;;4970770;28;20302;-64
2021/12/08 09:16:15;;;;;;;35.97;12.27;;;;;;;;;;4967078;28;20372;-65
2021/12/08 09:18:52;;;;;;;29.10;10.43;;;;;;;;;;4968855;28;20420;-65
2021/12/08 09:21:34;;;;;;;25.38;9.75;;;;;;;;;;4969338;28;20474;-64
2021/12/08 09:24:17;;;;;;;22.92;10.30;;;;;;;;;;4968891;28;20372;-65
2021/12/08 09:26:51;;;;;;;28.90;9.32;;;;;;;;;;4968956;28;20456;-64
2021/12/08 09:29:20;;;;;;;26.08;10.55;;;;;;;;;;4969873;28;20302;-65
2021/12/08 09:32:04;;;;;;;28.25;9.07;;;;;;;;;;4969185;28;20404;-64
2021/12/08 09:34:36;;;;;;;24.50;9.35;;;;;;;;;;4968769;28;20463;-65
2021/12/08 09:37:15;;;;;;;24.23;9.80;;;;;;;;;;4973008;28;20341;-65
2021/12/08 09:39:47;;;;;;;26.02;9.55;;;;;;;;;;4972943;28;20091;-64
2021/12/08 09:42:44;;;;;;;21.55;8.75;;;;;;;;;;4972348;28;20336;-65
2021/12/08 09:45:20;;;;;;;26.45;9.93;;;;;;;;;;4969070;28;20431;-64
2021/12/08 09:47:46;;;;;;;23.67;10.43;;;;;;;;;;4972875;28;20478;-65
2021/12/08 09:50:13;;;;;;;21.90;8.52;;;;;;;;;;4972790;28;20557;-66
2021/12/08 09:52:40;;;;;;;19.77;8.35;;;;;;;;;;4973173;28;20429;-65
2021/12/08 09:55:09;;;;;;;23.17;9.40;;;;;;;;;;4973044;28;20433;-64
2021/12/08 09:57:34;;;;;;;19.40;9.02;;;;;;;;;;4972155;28;20357;-64
2021/12/08 10:00:00;;;;;;;23.20;9.45;;;;;;;;;;4972445;28;20404;-65
2021/12/08 10:02:32;;;;;;;22.73;9.40;;;;;;;;;;4972068;28;20298;-65
2021/12/08 10:05:02;;;;;;;26.65;8.77;;;;;;;;;;4972160;28;20452;-64
2021/12/08 10:07:28;;;;;;;22.98;8.65;;;;;;;;;;4972526;28;20045;-64
2021/12/08 10:09:54;;;;;;;26.83;9.07;;;;;;;;;;4972172;28;20037;-64
2021/12/08 10:12:21;;;;;;;19.60;8.57;;;;;;;;;;4973631;28;20412;-65
2021/12/08 10:14:46;;;;;;;20.17;9.18;;;;;;;;;;4972274;28;20080;-64
2021/12/08 10:17:13;;;;;;;20.25;8.88;;;;;;;;;;4971977;28;20108;-65
2021/12/08 10:19:39;;;;;;;21.08;8.95;;;;;;;;;;4971834;28;20359;-65
2021/12/08 10:22:16;;;;;;;19.33;9.73;;;;;;;;;;4971706;28;20390;-65
2021/12/08 10:24:41;;;;;;;23.52;8.60;;;;;;;;;;4972190;28;20108;-65
2021/12/08 10:27:08;;;;;;;14.65;7.13;;;;;;;;;;4971576;28;20437;-65
2021/12/08 10:29:34;;;;;;;17.83;7.80;;;;;;;;;;4954864;28;20429;-64
2021/12/08 10:32:01;;;;;;;20.48;7.70;;;;;;;;;;4970071;28;20399;-65
2021/12/08 10:34:34;;;;;;;20.90;8.68;;;;;;;;;;4972016;28;20590;-64
2021/12/08 10:37:05;;;;;;;23.50;8.90;;;;;;;;;;4972766;28;20025;-65
2021/12/08 10:39:34;;;;;;;17.67;7.85;;;;;;;;;;4972053;28;20018;-65
2021/12/08 10:42:17;;;;;;;18.77;8.00;;;;;;;;;;4953932;28;20439;-64
2021/12/08 10:45:02;;;;;;;21.20;8.02;;;;;;;;;;4973023;28;20397;-65
2021/12/08 10:47:30;;;;;;;24.92;7.55;;;;;;;;;;4954125;28;20534;-65
2021/12/08 10:55:17;;;;;;;16.08;7.15;;;;;;;;;;4972024;28;20503;-64
2021/12/08 10:57:47;;;;;;;17.45;7.15;;;;;;;;;;4970933;28;20464;-65
2021/12/08 11:00:32;;;;;;;;;;;;;;;;;;4971586;28;20464;-65
2021/12/08 11:03:00;;;;;;;21.27;7.60;;;;;;;;;;4970427;28;20004;-64
2021/12/08 11:05:25;;;;;;;16.67;7.32;;;;;;;;;;4953484;28;20504;-64
2021/12/08 11:08:04;;;;;;;17.63;7.93;;;;;;;;;;4972852;28;20425;-65
2021/12/08 11:10:36;;;;;;;15.00;6.57;;;;;;;;;;4971127;28;20017;-65
2021/12/08 11:13:03;;;;;;;19.00;7.68;;;;;;;;;;4971106;28;20337;-64
2021/12/08 11:15:30;;;;;;;17.60;7.15;;;;;;;;;;4972104;28;20333;-64
2021/12/08 11:18:11;;;;;;;19.95;7.90;;;;;;;;;;4971062;28;20458;-64
2021/12/08 11:21:25;;;;;;;22.08;8.73;;;;;;;;;;4971441;28;20395;-65
2021/12/08 11:23:53;;;;;;;22.48;10.13;;;;;;;;;;4929145;28;20469;-65
2021/12/08 11:26:25;;;;;;;21.73;9.98;;;;;;;;;;4928813;28;20402;-64
2021/12/08 11:29:13;;;;;;;21.63;9.00;;;;;;;;;;4953299;28;20445;-65
2021/12/08 11:31:41;;;;;;;27.63;10.23;;;;;;;;;;4970258;28;20384;-65
2021/12/08 11:34:21;;;;;;;23.55;10.27;;;;;;;;;;4970750;28;20467;-64
2021/12/08 11:36:53;;;;;;;23.55;10.27;;;;;;;;;;4970606;28;20339;-65
2021/12/08 11:39:22;;;;;;;25.92;9.90;;;;;;;;;;4970293;28;20448;-65
2021/12/08 11:41:54;;;;;;;26.15;9.43;;;;;;;;;;4970341;28;20423;-65
2021/12/08 11:44:25;;;;;;;22.80;10.25;;;;;;;;;;4970657;28;20053;-65
2021/12/08 11:46:55;;;;;;;23.95;9.82;;;;;;;;;;4970108;28;20487;-65
2021/12/08 11:49:22;;;;;;;20.77;9.93;;;;;;;;;;4970261;28;20348;-65
2021/12/08 11:51:53;;;;;;;23.77;9.95;;;;;;;;;;4970198;28;20328;-65
2021/12/08 11:54:36;;;;;;;26.25;10.23;;;;;;;;;;4970424;28;20328;-65
2021/12/08 11:57:10;;;;;;;23.45;10.02;;;;;;;;;;4969873;28;20120;-65
2021/12/08 12:00:00;;;;;;;25.27;9.93;;;;;;;;;;4970277;28;20333;-65
2021/12/08 12:02:38;;;;;;;21.55;10.02;;;;;;;;;;4971325;28;20336;-64
2021/12/08 12:05:08;;;;;;;23.05;9.48;;;;;;;;;;4969758;28;20585;-64
2021/12/08 12:07:33;;;;;;;20.20;9.55;;;;;;;;;;4970101;28;20349;-64
2021/12/08 12:09:58;;;;;;;25.98;10.02;;;;;;;;;;4969971;28;20029;-66
2021/12/08 12:12:24;;;;;;;20.08;8.63;;;;;;;;;;4970130;28;20022;-65
2021/12/08 12:14:50;;;;;;;19.63;9.57;;;;;;;;;;4970578;28;20424;-64
2021/12/08 12:17:15;;;;;;;18.55;8.73;;;;;;;;;;4969829;28;20403;-65
2021/12/08 12:19:47;;;;;;;20.33;9.68;;;;;;;;;;4969649;28;20065;-65
2021/12/08 12:22:46;;;;;;;21.70;9.00;;;;;;;;;;4967973;28;20037;-65
2021/12/08 12:25:17;;;;;;;19.77;9.05;;;;;;;;;;4968376;28;20333;-64
2021/12/08 12:27:54;;;;;;;21.80;9.93;;;;;;;;;;4952711;28;20396;-65
2021/12/08 12:30:30;;;;;;;18.13;9.05;;;;;;;;;;4970396;28;20419;-65
2021/12/08 12:32:56;;;;;;;16.17;8.13;;;;;;;;;;4968008;28;20017;-64
2021/12/08 12:35:24;;;;;;;19.48;8.73;;;;;;;;;;4969481;28;20530;-65
2021/12/08 12:38:00;;;;;;;18.85;8.68;;;;;;;;;;4969618;28;20468;-64
2021/12/08 12:40:32;;;;;;;25.67;8.85;;;;;;;;;;4969796;28;20033;-65
2021/12/08 12:42:58;;;;;;;21.63;8.95;;;;;;;;;;4969596;28;20491;-64
2021/12/08 12:45:25;;;;;;;17.80;8.45;;;;;;;;;;4970560;28;20318;-65
2021/12/08 12:48:10;;;;;;;22.60;8.82;;;;;;;;;;4969336;28;20475;-65
2021/12/08 12:51:02;;;;;;;17.05;8.32;;;;;;;;;;4970549;28;20033;-65
2021/12/08 12:53:45;;;;;;;15.93;7.43;;;;;;;;;;4969451;28;20138;-65
2021/12/08 12:56:17;;;;;;;19.48;8.57;;;;;;;;;;4971230;28;20302;-65
2021/12/08 12:58:48;;;;;;;14.55;7.30;;;;;;;;;;4968842;28;20068;-65
2021/12/08 13:01:27;;;;;;;17.73;7.93;;;;;;;;;;4951823;28;20318;-65
2021/12/08 13:04:04;;;;;;;16.77;8.05;;;;;;;;;;4969141;28;20502;-65
2021/12/08 13:06:41;;;;;;;16.92;7.53;;;;;;;;;;4969363;28;20409;-64
2021/12/08 13:09:09;;;;;;;19.23;8.43;;;;;;;;;;4969612;28;20286;-65
2021/12/08 13:11:46;;;;;;;15.30;7.22;;;;;;;;;;4972207;28;20420;-65
2021/12/08 13:14:22;;;;;;;16.77;7.47;;;;;;;;;;4973525;28;20060;-65
2021/12/08 13:17:07;;;;;;;16.83;7.30;;;;;;;;;;4973234;28;20136;-65
2021/12/08 13:19:43;;;;;;;20.02;8.45;;;;;;;;;;4972946;28;20376;-65
2021/12/08 13:22:09;;;;;;;16.30;7.55;;;;;;;;;;4972885;28;20033;-64
2021/12/08 13:24:35;;;;;;;18.83;7.68;;;;;;;;;;4971180;28;20452;-64
2021/12/08 13:27:12;;;;;;;19.38;8.43;;;;;;;;;;4972916;28;20521;-64
2021/12/08 13:29:41;;;;;;;14.80;6.82;;;;;;;;;;4972824;28;20451;-65
2021/12/08 13:32:16;;;;;;;21.40;7.78;;;;;;;;;;4973004;28;20420;-65
2021/12/08 13:34:45;;;;;;;11.77;6.75;;;;;;;;;;4973391;28;20428;-64
2021/12/08 13:37:23;;;;;;;16.65;6.93;;;;;;;;;;4974337;28;20409;-64
2021/12/08 13:39:51;;;;;;;15.30;7.68;;;;;;;;;;4972734;28;20459;-65
2021/12/08 13:42:28;;;;;;;17.77;7.22;;;;;;;;;;4972465;28;20387;-64
2021/12/08 13:45:10;;;;;;;14.30;7.38;;;;;;;;;;4973034;28;20513;-65
2021/12/08 13:47:38;;;;;;;14.25;7.20;;;;;;;;;;4972868;28;20475;-65
2021/12/08 13:50:18;;;;;;;16.92;7.13;;;;;;;;;;4972435;28;20340;-65
2021/12/08 13:53:05;;;;;;;15.50;6.88;;;;;;;;;;4973178;28;20364;-64
2021/12/08 13:55:32;;;;;;;16.45;6.65;;;;;;;;;;4973048;28;20388;-65
2021/12/08 13:58:04;;;;;;;15.55;7.10;;;;;;;;;;4972643;28;20064;-65
2021/12/08 14:00:38;;;;;;;15.27;6.93;;;;;;;;;;4973463;28;20420;-65
2021/12/08 14:03:17;;;;;;;13.57;6.55;;;;;;;;;;4973031;28;20452;-65
2021/12/08 14:05:56;;;;;;;15.52;6.57;;;;;;;;;;4955165;28;20034;-65
2021/12/08 14:08:27;;;;;;;14.27;7.28;;;;;;;;;;4972400;28;20025;-65
2021/12/08 14:10:56;;;;;;;14.23;6.18;;;;;;;;;;4972781;28;20356;-65
2021/12/08 14:13:26;;;;;;;13.80;6.43;;;;;;;;;;4972998;28;20437;-65
2021/12/08 14:15:54;;;;;;;16.75;7.13;;;;;;;;;;4972468;28;20030;-65
2021/12/08 14:18:27;;;;;;;14.93;6.55;;;;;;;;;;4972247;28;20029;-65
2021/12/08 14:20:57;;;;;;;16.17;6.32;;;;;;;;;;4973174;28;20448;-64
2021/12/08 14:23:24;;;;;;;18.13;7.07;;;;;;;;;;4971360;28;20025;-64
2021/12/08 14:26:26;;;;;;;15.60;6.68;;;;;;;;;;4971764;28;20478;-64
2021/12/08 14:28:52;;;;;;;20.50;7.22;;;;;;;;;;4972278;28;20526;-64
2021/12/08 14:31:30;;;;;;;11.48;5.70;;;;;;;;;;4971794;28;20403;-68
2021/12/08 14:33:59;;;;;;;15.05;7.15;;;;;;;;;;4971796;28;20396;-64
2021/12/08 14:36:26;;;;;;;17.90;7.82;;;;;;;;;;4971754;28;20424;-65
2021/12/08 14:38:53;;;;;;;21.95;9.63;;;;;;;;;;4971644;28;20455;-65
2021/12/08 14:41:21;;;;;;;20.80;8.13;;;;;;;;;;4971945;28;20507;-70
2021/12/08 14:43:49;;;;;;;26.48;9.77;;;;;;;;;;4971086;28;20348;-65
2021/12/08 14:46:17;;;;;;;19.20;8.65;;;;;;;;;;4954115;28;20421;-64
2021/12/08 14:48:54;;;;;;;18.58;8.05;;;;;;;;;;4971390;28;20052;-64
2021/12/08 14:51:24;;;;;;;27.75;11.50;;;;;;;;;;4970795;28;20468;-67
2021/12/08 14:53:50;;;;;;;29.70;12.57;;;;;;;;;;4971397;28;20468;-65
2021/12/08 14:56:15;;;;;;;33.38;14.75;;;;;;;;;;4971174;28;20356;-66
2021/12/08 14:58:41;;;;;;;28.50;15.10;;;;;;;;;;4970813;28;20472;-65
2021/12/08 15:01:08;;;;;;;41.00;17.20;;;;;;;;;;4971606;28;20025;-64
2021/12/08 15:03:41;;;;;;;45.85;19.15;;;;;;;;;;4970391;28;20043;-64
2021/12/08 15:06:06;;;;;;;33.38;14.02;;;;;;;;;;4953417;28;20440;-64
2021/12/08 15:08:38;;;;;;;45.97;16.88;;;;;;;;;;4971116;28;20441;-66
2021/12/08 15:11:04;;;;;;;54.50;20.45;;;;;;;;;;4953413;28;20052;-66
2021/12/08 15:13:32;;;;;;;90.00;24.20;;;;;;;;;;4971247;28;20021;-68
2021/12/08 15:15:57;;;;;;;87.90;23.92;;;;;;;;;;4952690;28;20429;-67
2021/12/08 15:18:25;;;;;;;84.05;23.50;;;;;;;;;;4970229;28;20506;-67
2021/12/08 15:20:59;;;;;;;89.88;24.23;;;;;;;;;;4951030;28;20336;-67
2021/12/08 15:23:40;;;;;;;71.18;21.33;;;;;;;;;;4968835;28;20428;-67
2021/12/08 15:26:07;;;;;;;87.88;22.98;;;;;;;;;;4953944;28;20402;-68
2021/12/08 15:28:33;;;;;;;72.88;23.10;;;;;;;;;;4970736;28;20459;-66
2021/12/08 15:30:59;;;;;;;75.88;21.20;;;;;;;;;;4970206;28;20464;-67